Time,TemperatureF,DewpointF,PressureIn,WindDirection,WindDirectionDegrees,WindSpeedMPH,WindSpeedGustMPH,Humidity,HourlyPrecipIn,Conditions,Clouds,dailyrainin,SoftwareType,DateUTC
2013-10-05 00:00:00,56.6,50.8,30.00,SW,219,2.0,3.0,81,0.00,,---,0.00,VWS V14.01,2013-10-05 04:00:00,
2013-10-05 00:01:00,55.6,47.8,30.00,West,261,0.0,1.0,75,0.00,,---,0.00,VWS V14.01,2013-10-05 04:01:00,
2013-10-05 00:06:00,55.5,47.7,30.00,West,261,0.0,0.0,75,0.00,,---,0.00,VWS V14.01,2013-10-05 04:06:00,
2013-10-05 00:11:00,55.2,46.7,30.00,West,261,0.0,0.0,73,0.00,,---,0.00,VWS V14.01,2013-10-05 04:11:00,
2013-10-05 00:16:00,55.0,47.6,30.00,West,261,0.0,2.0,76,0.00,,---,0.00,VWS V14.01,2013-10-05 04:16:00,
2013-10-05 00:21:00,54.8,46.7,30.00,West,261,0.0,2.0,74,0.00,,---,0.00,VWS V14.01,2013-10-05 04:21:00,
2013-10-05 00:26:00,54.8,46.3,29.99,West,261,1.0,2.0,73,0.00,,---,0.00,VWS V14.01,2013-10-05 04:26:00,
2013-10-05 00:30:00,56.8,48.6,30.00,West,261,0.0,6.0,74,0.00,,---,0.00,VWS V14.01,2013-10-05 04:30:00,
2013-10-05 00:31:00,54.9,45.7,30.00,West,261,1.0,2.0,71,0.00,,---,0.00,VWS V14.01,2013-10-05 04:31:00,
2013-10-05 00:36:00,55.2,46.7,30.00,West,261,1.0,1.0,73,0.00,,---,0.00,VWS V14.01,2013-10-05 04:36:00,
2013-10-05 00:41:00,55.4,46.9,30.00,West,261,0.0,2.0,73,0.00,,---,0.00,VWS V14.01,2013-10-05 04:41:00,
2013-10-05 00:46:00,55.4,45.4,30.00,West,261,0.0,2.0,69,0.00,,---,0.00,VWS V14.01,2013-10-05 04:46:00,
2013-10-05 00:51:00,55.4,46.2,30.00,West,261,0.0,2.0,71,0.00,,---,0.00,VWS V14.01,2013-10-05 04:51:00,
2013-10-05 00:56:00,55.5,45.1,30.00,West,261,0.0,2.0,68,0.00,,---,0.00,VWS V14.01,2013-10-05 04:56:00,
2013-10-05 01:00:00,55.5,47.7,30.00,West,261,0.0,1.0,75,0.00,,---,0.00,VWS V14.01,2013-10-05 05:00:00,
2013-10-05 01:01:00,55.5,44.7,30.00,West,261,0.0,2.0,67,0.00,,---,0.00,VWS V14.01,2013-10-05 05:01:00,
2013-10-05 01:06:00,55.5,45.1,30.00,West,261,0.0,0.0,68,0.00,,---,0.00,VWS V14.01,2013-10-05 05:06:00,
2013-10-05 01:11:00,55.5,45.9,30.00,West,261,0.0,2.0,70,0.00,,---,0.00,VWS V14.01,2013-10-05 05:11:00,
2013-10-05 01:16:00,55.6,46.0,30.00,West,261,0.0,2.0,70,0.00,,---,0.00,VWS V14.01,2013-10-05 05:16:00,
2013-10-05 01:21:00,55.5,46.3,30.00,West,261,0.0,2.0,71,0.00,,---,0.00,VWS V14.01,2013-10-05 05:21:00,
2013-10-05 01:26:00,55.4,45.4,30.00,West,261,0.0,2.0,69,0.00,,---,0.00,VWS V14.01,2013-10-05 05:26:00,
2013-10-05 01:30:00,55.1,44.7,29.99,West,261,0.0,2.0,68,0.00,,---,0.00,VWS V14.01,2013-10-05 05:30:00,
2013-10-05 01:31:00,55.4,45.4,30.00,West,261,0.0,2.0,69,0.00,,---,0.00,VWS V14.01,2013-10-05 05:31:00,
2013-10-05 01:36:00,55.4,44.6,30.01,West,261,0.0,0.0,67,0.00,,---,0.00,VWS V14.01,2013-10-05 05:36:00,
2013-10-05 01:41:00,55.4,46.5,30.01,West,261,0.0,1.0,72,0.00,,---,0.00,VWS V14.01,2013-10-05 05:41:00,
2013-10-05 01:46:00,55.2,46.7,30.01,West,261,0.0,1.0,73,0.00,,---,0.00,VWS V14.01,2013-10-05 05:46:00,
2013-10-05 01:51:00,55.1,46.6,30.00,West,261,0.0,1.0,73,0.00,,---,0.00,VWS V14.01,2013-10-05 05:51:00,
2013-10-05 01:56:00,54.8,45.2,30.01,West,261,0.0,1.0,70,0.00,,---,0.00,VWS V14.01,2013-10-05 05:56:00,
2013-10-05 02:00:00,55.5,45.1,30.00,West,261,0.0,2.0,68,0.00,,---,0.00,VWS V14.01,2013-10-05 06:00:00,
2013-10-05 02:01:00,54.8,46.0,30.01,West,261,0.0,2.0,72,0.00,,---,0.00,VWS V14.01,2013-10-05 06:01:00,
2013-10-05 02:06:00,54.7,46.6,30.01,West,261,0.0,0.0,74,0.00,,---,0.00,VWS V14.01,2013-10-05 06:06:00,
2013-10-05 02:11:00,54.4,46.3,30.01,West,261,1.0,2.0,74,0.00,,---,0.00,VWS V14.01,2013-10-05 06:11:00,
2013-10-05 02:16:00,54.3,45.5,30.01,West,265,0.0,4.0,72,0.00,,---,0.00,VWS V14.01,2013-10-05 06:16:00,
2013-10-05 02:21:00,54.3,44.7,30.01,West,265,0.0,4.0,70,0.00,,---,0.00,VWS V14.01,2013-10-05 06:21:00,
2013-10-05 02:26:00,54.2,46.1,30.01,West,265,2.0,4.0,74,0.00,,---,0.00,VWS V14.01,2013-10-05 06:26:00,
2013-10-05 02:30:00,55.4,44.6,30.01,West,261,0.0,2.0,67,0.00,,---,0.00,VWS V14.01,2013-10-05 06:30:00,
2013-10-05 02:31:00,54.1,46.7,30.01,West,265,0.0,4.0,76,0.00,,---,0.00,VWS V14.01,2013-10-05 06:31:00,
2013-10-05 02:36:00,53.8,47.1,30.01,West,265,0.0,0.0,78,0.00,,---,0.00,VWS V14.01,2013-10-05 06:36:00,
2013-10-05 02:41:00,53.5,46.5,30.01,West,265,1.0,1.0,77,0.00,,---,0.00,VWS V14.01,2013-10-05 06:41:00,
2013-10-05 02:46:00,53.3,47.0,30.01,West,265,0.0,1.0,79,0.00,,---,0.00,VWS V14.01,2013-10-05 06:46:00,
2013-10-05 02:51:00,53.0,45.7,30.01,West,265,0.0,1.0,76,0.00,,---,0.00,VWS V14.01,2013-10-05 06:51:00,
2013-10-05 02:56:00,52.6,44.2,30.01,West,265,0.0,3.0,73,0.00,,---,0.00,VWS V14.01,2013-10-05 06:56:00,
2013-10-05 03:00:00,54.7,45.9,30.01,West,261,0.0,2.0,72,0.00,,---,0.00,VWS V14.01,2013-10-05 07:00:00,
2013-10-05 03:01:00,52.6,44.2,30.01,West,265,0.0,3.0,73,0.00,,---,0.00,VWS V14.01,2013-10-05 07:01:00,
2013-10-05 03:06:00,52.3,43.5,30.01,West,267,2.0,3.0,72,0.00,,---,0.00,VWS V14.01,2013-10-05 07:06:00,
2013-10-05 03:11:00,52.3,43.2,30.01,West,267,0.0,3.0,71,0.00,,---,0.00,VWS V14.01,2013-10-05 07:11:00,
2013-10-05 03:16:00,52.3,44.3,30.02,West,267,0.0,3.0,74,0.00,,---,0.00,VWS V14.01,2013-10-05 07:16:00,
2013-10-05 03:21:00,52.2,43.1,30.01,West,267,0.0,3.0,71,0.00,,---,0.00,VWS V14.01,2013-10-05 07:21:00,
2013-10-05 03:26:00,52.0,44.7,30.01,West,267,0.0,3.0,76,0.00,,---,0.00,VWS V14.01,2013-10-05 07:26:00,
2013-10-05 03:30:00,53.9,47.2,30.01,West,265,0.0,4.0,78,0.00,,---,0.00,VWS V14.01,2013-10-05 07:30:00,
2013-10-05 03:31:00,51.8,42.7,30.02,West,267,0.0,3.0,71,0.00,,---,0.00,VWS V14.01,2013-10-05 07:31:00,
2013-10-05 03:36:00,51.7,42.2,30.01,West,267,0.0,0.0,70,0.00,,---,0.00,VWS V14.01,2013-10-05 07:36:00,
2013-10-05 03:41:00,51.7,42.2,30.02,West,268,1.0,1.0,70,0.00,,---,0.00,VWS V14.01,2013-10-05 07:41:00,
2013-10-05 03:46:00,51.8,42.3,30.02,West,268,0.0,1.0,70,0.00,,---,0.00,VWS V14.01,2013-10-05 07:46:00,
2013-10-05 03:51:00,51.9,41.7,30.02,West,268,0.0,1.0,68,0.00,,---,0.00,VWS V14.01,2013-10-05 07:51:00,
2013-10-05 03:56:00,52.1,41.9,30.02,West,268,0.0,1.0,68,0.00,,---,0.00,VWS V14.01,2013-10-05 07:56:00,
2013-10-05 04:00:00,52.5,45.2,30.01,West,267,0.0,3.0,76,0.00,,---,0.00,VWS V14.01,2013-10-05 08:00:00,
2013-10-05 04:01:00,52.2,43.1,30.02,West,268,0.0,1.0,71,0.00,,---,0.00,VWS V14.01,2013-10-05 08:01:00,
2013-10-05 04:06:00,52.2,43.5,30.02,West,268,0.0,0.0,72,0.00,,---,0.00,VWS V14.01,2013-10-05 08:06:00,
2013-10-05 04:11:00,52.1,42.6,30.02,West,268,0.0,2.0,70,0.00,,---,0.00,VWS V14.01,2013-10-05 08:11:00,
2013-10-05 04:16:00,52.2,42.7,30.02,West,268,1.0,2.0,70,0.00,,---,0.00,VWS V14.01,2013-10-05 08:16:00,
2013-10-05 04:21:00,52.4,42.5,30.01,West,268,1.0,3.0,69,0.00,,---,0.00,VWS V14.01,2013-10-05 08:21:00,
2013-10-05 04:26:00,52.5,42.6,30.01,West,268,1.0,3.0,69,0.00,,---,0.00,VWS V14.01,2013-10-05 08:26:00,
2013-10-05 04:30:00,51.7,42.6,30.01,West,267,0.0,3.0,71,0.00,,---,0.00,VWS V14.01,2013-10-05 08:30:00,
2013-10-05 04:31:00,52.7,42.5,30.01,West,268,3.0,4.0,68,0.00,,---,0.00,VWS V14.01,2013-10-05 08:31:00,
2013-10-05 04:36:00,52.7,42.5,30.01,West,268,0.0,2.0,68,0.00,,---,0.00,VWS V14.01,2013-10-05 08:36:00,
2013-10-05 04:41:00,52.7,42.8,30.01,West,268,0.0,3.0,69,0.00,,---,0.00,VWS V14.01,2013-10-05 08:41:00,
2013-10-05 04:46:00,52.8,42.5,30.01,West,279,0.0,4.0,68,0.00,,---,0.00,VWS V14.01,2013-10-05 08:46:00,
2013-10-05 04:51:00,52.8,42.2,30.01,WNW,297,1.0,5.0,67,0.00,,---,0.00,VWS V14.01,2013-10-05 08:51:00,
2013-10-05 04:56:00,52.8,42.2,30.02,WNW,299,0.0,5.0,67,0.00,,---,0.00,VWS V14.01,2013-10-05 08:56:00,
2013-10-05 05:00:00,52.2,43.1,30.02,West,268,0.0,1.0,71,0.00,,---,0.00,VWS V14.01,2013-10-05 09:00:00,
2013-10-05 05:01:00,52.8,42.5,30.02,WNW,300,2.0,5.0,68,0.00,,---,0.00,VWS V14.01,2013-10-05 09:01:00,
2013-10-05 05:06:00,52.8,42.5,30.03,WNW,298,0.0,3.0,68,0.00,,---,0.00,VWS V14.01,2013-10-05 09:06:00,
2013-10-05 05:11:00,52.9,42.3,30.03,WNW,298,0.0,3.0,67,0.00,,---,0.00,VWS V14.01,2013-10-05 09:11:00,
2013-10-05 05:16:00,52.8,42.9,30.03,WNW,298,2.0,3.0,69,0.00,,---,0.00,VWS V14.01,2013-10-05 09:16:00,
2013-10-05 05:21:00,52.8,42.9,30.03,WNW,298,1.0,3.0,69,0.00,,---,0.00,VWS V14.01,2013-10-05 09:21:00,
2013-10-05 05:26:00,52.8,43.3,30.03,WNW,296,0.0,3.0,70,0.00,,---,0.00,VWS V14.01,2013-10-05 09:26:00,
2013-10-05 05:30:00,52.7,42.5,30.01,West,268,0.0,4.0,68,0.00,,---,0.00,VWS V14.01,2013-10-05 09:30:00,
2013-10-05 05:31:00,52.8,42.9,30.03,WNW,291,2.0,4.0,69,0.00,,---,0.00,VWS V14.01,2013-10-05 09:31:00,
2013-10-05 05:36:00,52.8,42.9,30.03,WNW,291,2.0,3.0,69,0.00,,---,0.00,VWS V14.01,2013-10-05 09:36:00,
2013-10-05 05:41:00,52.8,42.9,30.04,West,277,0.0,5.0,69,0.00,,---,0.00,VWS V14.01,2013-10-05 09:41:00,
2013-10-05 05:46:00,52.8,43.3,30.04,West,277,0.0,5.0,70,0.00,,---,0.00,VWS V14.01,2013-10-05 09:46:00,
2013-10-05 05:51:00,52.7,43.2,30.03,West,277,0.0,5.0,70,0.00,,---,0.00,VWS V14.01,2013-10-05 09:51:00,
2013-10-05 05:56:00,52.8,42.9,30.03,West,277,0.0,5.0,69,0.00,,---,0.00,VWS V14.01,2013-10-05 09:56:00,
2013-10-05 06:00:00,52.8,42.2,30.02,WNW,298,3.0,5.0,67,0.00,,---,0.00,VWS V14.01,2013-10-05 10:00:00,
2013-10-05 06:01:00,52.7,43.2,30.04,West,277,0.0,5.0,70,0.00,,---,0.00,VWS V14.01,2013-10-05 10:01:00,
2013-10-05 06:06:00,52.6,43.5,30.04,West,277,0.0,1.0,71,0.00,,---,0.00,VWS V14.01,2013-10-05 10:06:00,
2013-10-05 06:11:00,52.6,43.1,30.04,West,277,0.0,2.0,70,0.00,,---,0.00,VWS V14.01,2013-10-05 10:11:00,
2013-10-05 06:16:00,52.6,44.2,30.03,West,277,0.0,2.0,73,0.00,,---,0.00,VWS V14.01,2013-10-05 10:16:00,
2013-10-05 06:21:00,52.5,43.8,30.04,West,277,0.0,2.0,72,0.00,,---,0.00,VWS V14.01,2013-10-05 10:21:00,
2013-10-05 06:26:00,52.5,43.4,30.04,West,277,0.0,2.0,71,0.00,,---,0.00,VWS V14.01,2013-10-05 10:26:00,
2013-10-05 06:30:00,52.8,42.9,30.03,WNW,291,2.0,4.0,69,0.00,,---,0.00,VWS V14.01,2013-10-05 10:30:00,
2013-10-05 06:31:00,52.5,43.4,30.04,West,277,0.0,2.0,71,0.00,,---,0.00,VWS V14.01,2013-10-05 10:31:00,
2013-10-05 06:36:00,52.5,43.4,30.05,West,277,0.0,2.0,71,0.00,,---,0.00,VWS V14.01,2013-10-05 10:36:00,
2013-10-05 06:41:00,52.4,43.3,30.05,West,277,0.0,2.0,71,0.00,,---,0.00,VWS V14.01,2013-10-05 10:41:00,
2013-10-05 06:46:00,52.4,44.0,30.04,West,277,1.0,4.0,73,0.00,,---,0.00,VWS V14.01,2013-10-05 10:46:00,
2013-10-05 06:51:00,52.3,43.9,30.04,WNW,290,0.0,5.0,73,0.00,,---,0.00,VWS V14.01,2013-10-05 10:51:00,
2013-10-05 06:56:00,52.4,43.3,30.04,WNW,294,3.0,6.0,71,0.00,,---,0.00,VWS V14.01,2013-10-05 10:56:00,
2013-10-05 07:00:00,52.7,43.9,30.04,West,277,0.0,5.0,72,0.00,,---,0.00,VWS V14.01,2013-10-05 11:00:00,
2013-10-05 07:01:00,52.5,43.8,30.04,West,262,2.0,6.0,72,0.00,,---,0.00,VWS V14.01,2013-10-05 11:01:00,
2013-10-05 07:06:00,52.5,43.4,30.05,West,262,3.0,4.0,71,0.00,,---,0.00,VWS V14.01,2013-10-05 11:06:00,
2013-10-05 07:11:00,52.5,43.4,30.05,West,262,2.0,4.0,71,0.00,,---,0.00,VWS V14.01,2013-10-05 11:11:00,
2013-10-05 07:16:00,52.5,43.4,30.05,West,262,0.0,4.0,71,0.00,,---,0.00,VWS V14.01,2013-10-05 11:16:00,
2013-10-05 07:21:00,52.6,43.8,30.05,West,264,0.0,4.0,72,0.00,,---,0.00,VWS V14.01,2013-10-05 11:21:00,
2013-10-05 07:26:00,52.7,43.6,30.06,West,269,0.0,4.0,71,0.00,,---,0.00,VWS V14.01,2013-10-05 11:26:00,
2013-10-05 07:30:00,52.5,43.4,30.05,West,277,0.0,2.0,71,0.00,,---,0.00,VWS V14.01,2013-10-05 11:30:00,
2013-10-05 07:31:00,52.7,43.6,30.05,West,269,1.0,4.0,71,0.00,,---,0.00,VWS V14.01,2013-10-05 11:31:00,
2013-10-05 07:36:00,52.8,43.7,30.06,West,269,0.0,1.0,71,0.00,,---,0.00,VWS V14.01,2013-10-05 11:36:00,
2013-10-05 07:41:00,52.9,44.1,30.05,West,269,0.0,1.0,72,0.00,,---,0.00,VWS V14.01,2013-10-05 11:41:00,
2013-10-05 07:46:00,53.0,43.9,30.05,West,269,0.0,4.0,71,0.00,,---,0.00,VWS V14.01,2013-10-05 11:46:00,
2013-10-05 07:51:00,53.1,43.6,30.05,West,273,0.0,4.0,70,0.00,,---,0.00,VWS V14.01,2013-10-05 11:51:00,
2013-10-05 07:56:00,53.4,43.9,30.05,West,273,1.0,4.0,70,0.00,,---,0.00,VWS V14.01,2013-10-05 11:56:00,
2013-10-05 08:00:00,52.5,43.8,30.04,West,262,2.0,6.0,72,0.00,,---,0.00,VWS V14.01,2013-10-05 12:00:00,
2013-10-05 08:01:00,53.5,44.0,30.05,West,273,0.0,4.0,70,0.00,,---,0.00,VWS V14.01,2013-10-05 12:01:00,
2013-10-05 08:06:00,53.6,43.7,30.05,West,276,0.0,4.0,69,0.00,,---,0.00,VWS V14.01,2013-10-05 12:06:00,
2013-10-05 08:11:00,53.8,43.9,30.06,West,259,3.0,7.0,69,0.00,,---,0.00,VWS V14.01,2013-10-05 12:11:00,
2013-10-05 08:16:00,54.0,44.1,30.06,NW,313,0.0,7.0,69,0.00,,---,0.00,VWS V14.01,2013-10-05 12:16:00,
2013-10-05 08:21:00,54.0,43.7,30.06,NNW,329,3.0,7.0,68,0.00,,---,0.00,VWS V14.01,2013-10-05 12:21:00,
2013-10-05 08:26:00,54.0,43.7,30.05,West,279,2.0,7.0,68,0.00,,---,0.00,VWS V14.01,2013-10-05 12:26:00,
2013-10-05 08:30:00,52.8,44.0,30.06,West,269,0.0,4.0,72,0.00,,---,0.00,VWS V14.01,2013-10-05 12:30:00,
2013-10-05 08:31:00,54.2,43.9,30.05,West,264,0.0,7.0,68,0.00,,---,0.00,VWS V14.01,2013-10-05 12:31:00,
2013-10-05 08:36:00,54.3,43.6,30.05,NW,312,0.0,2.0,67,0.00,,---,0.00,VWS V14.01,2013-10-05 12:36:00,
2013-10-05 08:41:00,54.4,43.3,30.06,NW,311,1.0,5.0,66,0.00,,---,0.00,VWS V14.01,2013-10-05 12:41:00,
2013-10-05 08:46:00,54.6,43.9,30.06,NNW,342,1.0,5.0,67,0.00,,---,0.00,VWS V14.01,2013-10-05 12:46:00,
2013-10-05 08:51:00,55.0,44.3,30.06,NW,304,0.0,5.0,67,0.00,,---,0.00,VWS V14.01,2013-10-05 12:51:00,
2013-10-05 08:56:00,55.4,44.6,30.06,NW,304,0.0,5.0,67,0.00,,---,0.00,VWS V14.01,2013-10-05 12:56:00,
2013-10-05 09:00:00,53.6,44.1,30.05,NW,316,0.0,4.0,70,0.00,,---,0.00,VWS V14.01,2013-10-05 13:00:00,
2013-10-05 09:01:00,55.8,44.6,30.06,NW,321,0.0,5.0,66,0.00,,---,0.00,VWS V14.01,2013-10-05 13:01:00,
2013-10-05 09:06:00,56.0,44.4,30.06,WNW,292,4.0,4.0,65,0.00,,---,0.00,VWS V14.01,2013-10-05 13:06:00,
2013-10-05 09:11:00,56.0,44.4,30.06,North,5,1.0,4.0,65,0.00,,---,0.00,VWS V14.01,2013-10-05 13:11:00,
2013-10-05 09:16:00,56.3,44.3,30.06,West,264,0.0,4.0,64,0.00,,---,0.00,VWS V14.01,2013-10-05 13:16:00,
2013-10-05 09:21:00,56.8,44.3,30.06,West,278,0.0,5.0,63,0.00,,---,0.00,VWS V14.01,2013-10-05 13:21:00,
2013-10-05 09:26:00,56.9,44.5,30.05,West,269,1.0,5.0,63,0.00,,---,0.00,VWS V14.01,2013-10-05 13:26:00,
2013-10-05 09:30:00,54.3,43.6,30.05,NW,312,2.0,7.0,67,0.00,,---,0.00,VWS V14.01,2013-10-05 13:30:00,
2013-10-05 09:31:00,56.8,44.3,30.05,NNW,345,2.0,5.0,63,0.00,,---,0.00,VWS V14.01,2013-10-05 13:31:00,
2013-10-05 09:36:00,56.4,44.0,30.05,WNW,286,2.0,4.0,63,0.00,,---,0.00,VWS V14.01,2013-10-05 13:36:00,
2013-10-05 09:40:00,56.2,45.0,30.05,WNW,294,3.0,4.0,66,0.00,,---,0.00,VWS V14.01,2013-10-05 13:40:00,
2013-10-05 09:45:00,56.2,45.0,30.05,NW,321,0.0,4.0,66,0.00,,---,0.00,VWS V14.01,2013-10-05 13:45:00,
2013-10-05 09:50:00,56.4,44.4,30.05,WNW,292,1.0,5.0,64,0.00,,---,0.00,VWS V14.01,2013-10-05 13:50:00,
2013-10-05 09:55:00,56.6,44.6,30.05,NW,317,2.0,5.0,64,0.00,,---,0.00,VWS V14.01,2013-10-05 13:55:00,
2013-10-05 10:00:00,56.8,44.8,30.05,WNW,295,4.0,5.0,64,0.00,,---,0.00,VWS V14.01,2013-10-05 14:00:00,
2013-10-05 10:05:00,57.3,45.2,30.05,West,281,0.0,1.0,64,0.00,,---,0.00,VWS V14.01,2013-10-05 14:05:00,
2013-10-05 10:10:00,57.9,45.0,30.05,NW,322,0.0,5.0,62,0.00,,---,0.00,VWS V14.01,2013-10-05 14:10:00,
2013-10-05 10:15:00,58.3,44.5,30.04,NW,317,1.0,5.0,60,0.00,,---,0.00,VWS V14.01,2013-10-05 14:15:00,
2013-10-05 10:20:00,58.5,44.7,30.05,WNW,287,0.0,5.0,60,0.00,,---,0.00,VWS V14.01,2013-10-05 14:20:00,
2013-10-05 10:25:00,58.5,44.2,30.05,WNW,286,3.0,5.0,59,0.00,,---,0.00,VWS V14.01,2013-10-05 14:25:00,
2013-10-05 10:30:00,58.7,44.4,30.05,ENE,65,1.0,5.0,59,0.00,,---,0.00,VWS V14.01,2013-10-05 14:30:00,
2013-10-05 10:35:00,58.9,45.1,30.05,NW,326,1.0,2.0,60,0.00,,---,0.00,VWS V14.01,2013-10-05 14:35:00,
2013-10-05 10:40:00,59.2,44.5,30.05,NNW,327,0.0,2.0,58,0.00,,---,0.00,VWS V14.01,2013-10-05 14:40:00,
2013-10-05 10:45:00,59.2,44.5,30.05,WSW,258,5.0,6.0,58,0.00,,---,0.00,VWS V14.01,2013-10-05 14:45:00,
2013-10-05 10:50:00,60.0,45.7,30.05,West,265,2.0,6.0,59,0.00,,---,0.00,VWS V14.01,2013-10-05 14:50:00,
2013-10-05 10:55:00,60.5,44.7,30.05,West,265,1.0,6.0,56,0.00,,---,0.00,VWS V14.01,2013-10-05 14:55:00,
2013-10-05 11:00:00,61.0,44.7,30.05,SW,223,0.0,6.0,55,0.00,,---,0.00,VWS V14.01,2013-10-05 15:00:00,
2013-10-05 11:05:00,61.2,45.4,30.04,West,279,2.0,3.0,56,0.00,,---,0.00,VWS V14.01,2013-10-05 15:05:00,
2013-10-05 11:10:00,60.5,43.8,30.05,NW,311,1.0,3.0,54,0.00,,---,0.00,VWS V14.01,2013-10-05 15:10:00,
2013-10-05 11:15:00,59.9,43.7,30.05,NNW,329,0.0,3.0,55,0.00,,---,0.00,VWS V14.01,2013-10-05 15:15:00,
2013-10-05 11:20:00,59.4,43.7,30.05,NNW,329,0.0,3.0,56,0.00,,---,0.00,VWS V14.01,2013-10-05 15:20:00,
2013-10-05 11:25:00,59.1,43.9,30.05,NNW,329,0.0,3.0,57,0.00,,---,0.00,VWS V14.01,2013-10-05 15:25:00,
2013-10-05 11:30:00,59.0,44.7,30.05,WNW,290,0.0,3.0,59,0.00,,---,0.00,VWS V14.01,2013-10-05 15:30:00,
2013-10-05 11:35:00,59.2,44.0,30.05,WNW,290,1.0,3.0,57,0.00,,---,0.00,VWS V14.01,2013-10-05 15:35:00,
2013-10-05 11:40:00,58.8,44.5,30.05,WNW,298,0.0,3.0,59,0.00,,---,0.00,VWS V14.01,2013-10-05 15:40:00,
2013-10-05 11:45:00,58.9,44.6,30.05,WNW,298,1.0,3.0,59,0.00,,---,0.00,VWS V14.01,2013-10-05 15:45:00,
2013-10-05 11:50:00,59.1,44.3,30.05,WNW,298,0.0,3.0,58,0.00,,---,0.00,VWS V14.01,2013-10-05 15:50:00,
2013-10-05 11:55:00,59.2,44.0,30.05,WNW,298,0.0,3.0,57,0.00,,---,0.00,VWS V14.01,2013-10-05 15:55:00,
2013-10-05 12:00:00,58.9,45.1,30.05,WNW,298,0.0,3.0,60,0.00,,---,0.00,VWS V14.01,2013-10-05 16:00:00,
2013-10-05 12:05:00,58.9,44.2,30.05,NNE,14,1.0,2.0,58,0.00,,---,0.00,VWS V14.01,2013-10-05 16:05:00,
2013-10-05 12:10:00,58.6,44.3,30.05,East,89,0.0,2.0,59,0.00,,---,0.00,VWS V14.01,2013-10-05 16:10:00,
2013-10-05 12:15:00,58.6,44.3,30.05,East,89,0.0,2.0,59,0.00,,---,0.00,VWS V14.01,2013-10-05 16:15:00,
2013-10-05 12:20:00,58.7,44.0,30.04,East,93,1.0,3.0,58,0.00,,---,0.00,VWS V14.01,2013-10-05 16:20:00,
2013-10-05 12:25:00,58.7,44.4,30.04,East,93,0.0,3.0,59,0.00,,---,0.00,VWS V14.01,2013-10-05 16:25:00,
2013-10-05 12:30:00,59.4,45.1,30.04,East,93,0.0,3.0,59,0.00,,---,0.00,VWS V14.01,2013-10-05 16:30:00,
2013-10-05 12:35:00,60.0,44.7,30.03,East,93,1.0,2.0,57,0.00,,---,0.00,VWS V14.01,2013-10-05 16:35:00,
2013-10-05 12:40:00,59.9,44.2,30.03,East,93,2.0,2.0,56,0.00,,---,0.00,VWS V14.01,2013-10-05 16:40:00,
2013-10-05 12:45:00,59.3,45.0,30.03,East,90,1.0,3.0,59,0.00,,---,0.00,VWS V14.01,2013-10-05 16:45:00,
2013-10-05 12:50:00,59.2,44.9,30.03,ESE,123,1.0,3.0,59,0.00,,---,0.00,VWS V14.01,2013-10-05 16:50:00,
2013-10-05 12:55:00,59.1,44.3,30.03,ESE,123,3.0,3.0,58,0.00,,---,0.00,VWS V14.01,2013-10-05 16:55:00,
2013-10-05 13:00:00,58.9,44.2,30.03,East,101,1.0,3.0,58,0.00,,---,0.00,VWS V14.01,2013-10-05 17:00:00,
2013-10-05 13:05:00,58.9,44.6,30.03,East,101,1.0,2.0,59,0.00,,---,0.00,VWS V14.01,2013-10-05 17:05:00,
2013-10-05 13:10:00,58.9,44.6,30.03,East,101,0.0,2.0,59,0.00,,---,0.00,VWS V14.01,2013-10-05 17:10:00,
2013-10-05 13:15:00,58.9,44.6,30.03,East,101,0.0,2.0,59,0.00,,---,0.00,VWS V14.01,2013-10-05 17:15:00,
2013-10-05 13:20:00,59.0,45.2,30.03,East,101,1.0,2.0,60,0.00,,---,0.00,VWS V14.01,2013-10-05 17:20:00,
2013-10-05 13:25:00,59.3,45.0,30.03,East,101,2.0,2.0,59,0.00,,---,0.00,VWS V14.01,2013-10-05 17:25:00,
2013-10-05 13:30:00,59.3,45.0,30.03,SE,126,0.0,3.0,59,0.00,,---,0.00,VWS V14.01,2013-10-05 17:30:00,
2013-10-05 13:35:00,59.5,45.2,30.02,SE,126,1.0,2.0,59,0.00,,---,0.00,VWS V14.01,2013-10-05 17:35:00,
2013-10-05 13:40:00,59.7,45.8,30.02,SE,126,1.0,2.0,60,0.00,,---,0.00,VWS V14.01,2013-10-05 17:40:00,
2013-10-05 13:45:00,59.5,45.2,30.02,ESE,123,2.0,4.0,59,0.00,,---,0.00,VWS V14.01,2013-10-05 17:45:00,
2013-10-05 13:50:00,59.5,45.2,30.02,ESE,123,3.0,4.0,59,0.00,,---,0.00,VWS V14.01,2013-10-05 17:50:00,
2013-10-05 13:55:00,59.6,45.3,30.02,ESE,110,2.0,4.0,59,0.00,,---,0.00,VWS V14.01,2013-10-05 17:55:00,
2013-10-05 14:00:00,59.5,45.2,30.02,ESE,115,1.0,4.0,59,0.00,,---,0.00,VWS V14.01,2013-10-05 18:00:00,
2013-10-05 14:05:00,59.6,44.8,30.02,ESE,115,0.0,0.0,58,0.00,,---,0.00,VWS V14.01,2013-10-05 18:05:00,
2013-10-05 14:10:00,60.0,45.7,30.02,ESE,115,3.0,3.0,59,0.00,,---,0.00,VWS V14.01,2013-10-05 18:10:00,
2013-10-05 14:15:00,60.3,46.4,30.01,ESE,115,1.0,3.0,60,0.00,,---,0.00,VWS V14.01,2013-10-05 18:15:00,
2013-10-05 14:20:00,60.6,45.8,30.01,East,94,2.0,5.0,58,0.00,,---,0.00,VWS V14.01,2013-10-05 18:20:00,
2013-10-05 14:25:00,60.2,45.8,30.01,East,94,1.0,5.0,59,0.00,,---,0.00,VWS V14.01,2013-10-05 18:25:00,
2013-10-05 14:30:00,61.1,46.2,30.01,SSW,196,0.0,5.0,58,0.00,,---,0.00,VWS V14.01,2013-10-05 18:30:00,
2013-10-05 14:35:00,61.7,46.8,30.01,SE,124,1.0,2.0,58,0.00,,---,0.00,VWS V14.01,2013-10-05 18:35:00,
2013-10-05 14:40:00,61.3,45.5,30.01,ESE,110,5.0,5.0,56,0.00,,---,0.00,VWS V14.01,2013-10-05 18:40:00,
2013-10-05 14:45:00,60.5,45.2,30.01,ESE,121,2.0,5.0,57,0.00,,---,0.00,VWS V14.01,2013-10-05 18:45:00,
2013-10-05 14:50:00,59.9,44.7,30.01,ESE,107,2.0,5.0,57,0.00,,---,0.00,VWS V14.01,2013-10-05 18:50:00,
2013-10-05 14:55:00,59.6,44.8,30.02,ESE,123,1.0,5.0,58,0.00,,---,0.00,VWS V14.01,2013-10-05 18:55:00,
2013-10-05 15:00:00,59.5,44.7,30.02,East,98,3.0,5.0,58,0.00,,---,0.00,VWS V14.01,2013-10-05 19:00:00,
2013-10-05 15:05:00,59.2,44.9,30.01,East,90,2.0,3.0,59,0.00,,---,0.00,VWS V14.01,2013-10-05 19:05:00,
2013-10-05 15:10:00,59.1,45.2,30.01,East,90,0.0,3.0,60,0.00,,---,0.00,VWS V14.01,2013-10-05 19:10:00,
2013-10-05 15:15:00,59.2,46.6,30.01,East,90,0.0,3.0,63,0.00,,---,0.00,VWS V14.01,2013-10-05 19:15:00,
2013-10-05 15:20:00,59.5,47.3,30.01,East,91,0.0,3.0,64,0.00,,---,0.00,VWS V14.01,2013-10-05 19:20:00,
2013-10-05 15:25:00,59.7,47.5,30.01,East,91,2.0,3.0,64,0.00,,---,0.00,VWS V14.01,2013-10-05 19:25:00,
2013-10-05 15:30:00,59.6,47.0,30.01,ENE,71,0.0,4.0,63,0.00,,---,0.00,VWS V14.01,2013-10-05 19:30:00,
2013-10-05 15:35:00,59.6,47.0,30.01,ESE,104,0.0,2.0,63,0.00,,---,0.00,VWS V14.01,2013-10-05 19:35:00,
2013-10-05 15:40:00,59.5,47.3,30.01,ESE,111,2.0,2.0,64,0.00,,---,0.00,VWS V14.01,2013-10-05 19:40:00,
2013-10-05 15:45:00,59.5,47.3,30.01,ESE,111,0.0,2.0,64,0.00,,---,0.00,VWS V14.01,2013-10-05 19:45:00,
2013-10-05 15:50:00,59.4,47.2,30.01,East,79,0.0,3.0,64,0.00,,---,0.00,VWS V14.01,2013-10-05 19:50:00,
2013-10-05 15:55:00,59.5,47.3,30.01,ESE,102,1.0,3.0,64,0.00,,---,0.00,VWS V14.01,2013-10-05 19:55:00,
2013-10-05 16:00:00,59.1,47.4,30.01,East,95,1.0,5.0,65,0.00,,---,0.00,VWS V14.01,2013-10-05 20:00:00,
2013-10-05 16:05:00,59.0,47.7,30.01,ENE,65,0.0,3.0,66,0.00,,---,0.00,VWS V14.01,2013-10-05 20:05:00,
2013-10-05 16:10:00,58.7,47.8,30.01,East,89,2.0,5.0,67,0.00,,---,0.00,VWS V14.01,2013-10-05 20:10:00,
2013-10-05 16:15:00,58.4,47.9,30.00,ENE,62,2.0,5.0,68,0.00,,---,0.00,VWS V14.01,2013-10-05 20:15:00,
2013-10-05 16:20:00,58.2,48.1,30.00,East,93,2.0,5.0,69,0.00,,---,0.00,VWS V14.01,2013-10-05 20:20:00,
2013-10-05 16:25:00,58.1,48.0,30.00,ENE,73,3.0,5.0,69,0.00,,---,0.00,VWS V14.01,2013-10-05 20:25:00,
2013-10-05 16:30:00,58.1,48.0,30.00,NE,40,4.0,5.0,69,0.00,,---,0.00,VWS V14.01,2013-10-05 20:30:00,
2013-10-05 16:35:00,58.0,47.9,30.00,NE,44,3.0,7.0,69,0.00,,---,0.00,VWS V14.01,2013-10-05 20:35:00,
2013-10-05 16:40:00,58.1,47.6,30.00,ESE,103,2.0,7.0,68,0.00,,---,0.00,VWS V14.01,2013-10-05 20:40:00,
2013-10-05 16:45:00,58.3,48.2,30.00,ENE,67,0.0,7.0,69,0.00,,---,0.00,VWS V14.01,2013-10-05 20:45:00,
2013-10-05 16:50:00,58.4,48.3,30.00,East,87,0.0,7.0,69,0.00,,---,0.00,VWS V14.01,2013-10-05 20:50:00,
2013-10-05 16:55:00,58.4,47.9,30.00,ENE,61,3.0,7.0,68,0.00,,---,0.00,VWS V14.01,2013-10-05 20:55:00,
2013-10-05 17:00:00,58.0,47.5,30.00,ESE,111,3.0,7.0,68,0.00,,---,0.00,VWS V14.01,2013-10-05 21:00:00,
2013-10-05 17:05:00,57.7,46.8,30.01,ENE,77,1.0,2.0,67,0.00,,---,0.00,VWS V14.01,2013-10-05 21:05:00,
2013-10-05 17:10:00,57.5,47.0,30.01,ENE,61,1.0,5.0,68,0.00,,---,0.00,VWS V14.01,2013-10-05 21:10:00,
2013-10-05 17:15:00,57.6,47.5,30.01,ENE,61,1.0,5.0,69,0.00,,---,0.00,VWS V14.01,2013-10-05 21:15:00,
2013-10-05 17:20:00,57.5,47.4,30.01,ENE,75,1.0,5.0,69,0.00,,---,0.00,VWS V14.01,2013-10-05 21:20:00,
2013-10-05 17:25:00,57.4,47.3,30.01,ENE,75,1.0,5.0,69,0.00,,---,0.00,VWS V14.01,2013-10-05 21:25:00,
2013-10-05 17:30:00,57.3,47.6,30.01,East,91,1.0,5.0,70,0.00,,---,0.00,VWS V14.01,2013-10-05 21:30:00,
2013-10-05 17:35:00,57.1,47.0,30.01,East,92,1.0,6.0,69,0.00,,---,0.00,VWS V14.01,2013-10-05 21:35:00,
2013-10-05 17:40:00,56.8,46.4,30.01,East,90,1.0,6.0,68,0.00,,---,0.00,VWS V14.01,2013-10-05 21:40:00,
2013-10-05 17:45:00,56.7,46.7,30.02,East,88,3.0,6.0,69,0.00,,---,0.00,VWS V14.01,2013-10-05 21:45:00,
2013-10-05 17:50:00,56.7,47.0,30.02,East,88,0.0,6.0,70,0.00,,---,0.00,VWS V14.01,2013-10-05 21:50:00,
2013-10-05 17:55:00,56.6,46.9,30.02,East,88,1.0,6.0,70,0.00,,---,0.00,VWS V14.01,2013-10-05 21:55:00,
2013-10-05 18:00:00,56.3,47.0,30.02,East,88,0.0,6.0,71,0.00,,---,0.00,VWS V14.01,2013-10-05 22:00:00,
2013-10-05 18:05:00,56.0,47.5,30.02,East,88,0.0,0.0,73,0.00,,---,0.00,VWS V14.01,2013-10-05 22:05:00,
2013-10-05 18:10:00,55.8,47.7,30.02,East,88,0.0,0.0,74,0.00,,---,0.00,VWS V14.01,2013-10-05 22:10:00,
2013-10-05 18:15:00,55.4,47.6,30.02,East,88,0.0,0.0,75,0.00,,---,0.00,VWS V14.01,2013-10-05 22:15:00,
2013-10-05 18:20:00,55.0,47.2,30.02,East,88,0.0,0.0,75,0.00,,---,0.00,VWS V14.01,2013-10-05 22:20:00,
2013-10-05 18:25:00,54.5,47.5,30.02,East,88,0.0,0.0,77,0.00,,---,0.00,VWS V14.01,2013-10-05 22:25:00,
2013-10-05 18:30:00,53.9,47.2,30.02,East,88,0.0,0.0,78,0.00,,---,0.00,VWS V14.01,2013-10-05 22:30:00,
2013-10-05 18:35:00,53.4,47.1,30.02,East,88,0.0,0.0,79,0.00,,---,0.00,VWS V14.01,2013-10-05 22:35:00,
2013-10-05 18:40:00,53.0,47.0,30.02,East,88,0.0,0.0,80,0.00,,---,0.00,VWS V14.01,2013-10-05 22:40:00,
2013-10-05 18:45:00,52.7,47.0,30.03,East,88,0.0,0.0,81,0.00,,---,0.00,VWS V14.01,2013-10-05 22:45:00,
2013-10-05 18:50:00,52.3,47.0,30.03,East,88,0.0,0.0,82,0.00,,---,0.00,VWS V14.01,2013-10-05 22:50:00,
2013-10-05 18:55:00,51.9,46.9,30.03,East,88,0.0,0.0,83,0.00,,---,0.00,VWS V14.01,2013-10-05 22:55:00,
2013-10-05 19:00:00,51.6,46.9,30.03,East,88,0.0,0.0,84,0.00,,---,0.00,VWS V14.01,2013-10-05 23:00:00,
2013-10-05 19:05:00,51.4,46.7,30.02,East,88,0.0,0.0,84,0.00,,---,0.00,VWS V14.01,2013-10-05 23:05:00,
2013-10-05 19:10:00,51.2,46.8,30.02,East,88,1.0,1.0,85,0.00,,---,0.00,VWS V14.01,2013-10-05 23:10:00,
2013-10-05 19:15:00,51.1,46.4,30.02,East,86,2.0,5.0,84,0.00,,---,0.00,VWS V14.01,2013-10-05 23:15:00,
2013-10-05 19:20:00,51.3,46.6,30.02,East,87,1.0,5.0,84,0.00,,---,0.00,VWS V14.01,2013-10-05 23:20:00,
2013-10-05 19:25:00,51.6,46.6,30.03,East,87,1.0,5.0,83,0.00,,---,0.00,VWS V14.01,2013-10-05 23:25:00,
2013-10-05 19:30:00,51.8,47.1,30.03,East,87,0.0,5.0,84,0.00,,---,0.00,VWS V14.01,2013-10-05 23:30:00,
2013-10-05 19:35:00,51.6,46.9,30.03,East,87,1.0,1.0,84,0.00,,---,0.00,VWS V14.01,2013-10-05 23:35:00,
2013-10-05 19:40:00,51.3,46.6,30.03,East,87,1.0,2.0,84,0.00,,---,0.00,VWS V14.01,2013-10-05 23:40:00,
2013-10-05 19:45:00,51.2,46.8,30.03,East,87,0.0,2.0,85,0.00,,---,0.00,VWS V14.01,2013-10-05 23:45:00,
2013-10-05 19:50:00,51.1,46.8,30.03,East,87,1.0,2.0,85,0.00,,---,0.00,VWS V14.01,2013-10-05 23:50:00,
2013-10-05 19:55:00,50.8,46.5,30.03,East,87,0.0,2.0,85,0.00,,---,0.00,VWS V14.01,2013-10-05 23:55:00,
2013-10-05 20:00:00,50.5,46.5,30.03,East,87,0.0,2.0,86,0.00,,---,0.00,VWS V14.01,2013-10-06 00:00:00,
2013-10-05 20:05:00,50.0,46.0,30.03,East,87,0.0,0.0,86,0.00,,---,0.00,VWS V14.01,2013-10-06 00:05:00,
2013-10-05 20:10:00,49.6,45.9,30.03,East,87,0.0,0.0,87,0.00,,---,0.00,VWS V14.01,2013-10-06 00:10:00,
2013-10-05 20:15:00,49.2,45.8,30.03,East,87,0.0,0.0,88,0.00,,---,0.00,VWS V14.01,2013-10-06 00:15:00,
2013-10-05 20:20:00,48.9,45.5,30.03,East,87,0.0,0.0,88,0.00,,---,0.00,VWS V14.01,2013-10-06 00:20:00,
2013-10-05 20:25:00,48.6,45.2,30.03,East,87,0.0,0.0,88,0.00,,---,0.00,VWS V14.01,2013-10-06 00:25:00,
2013-10-05 20:30:00,48.4,45.3,30.03,East,87,0.0,0.0,89,0.00,,---,0.00,VWS V14.01,2013-10-06 00:30:00,
2013-10-05 20:35:00,48.1,45.3,30.03,East,87,0.0,0.0,90,0.00,,---,0.00,VWS V14.01,2013-10-06 00:35:00,
2013-10-05 20:40:00,47.8,45.0,30.03,East,87,0.0,0.0,90,0.00,,---,0.00,VWS V14.01,2013-10-06 00:40:00,
2013-10-05 20:45:00,47.7,44.9,30.03,East,87,0.0,0.0,90,0.00,,---,0.00,VWS V14.01,2013-10-06 00:45:00,
2013-10-05 20:50:00,47.4,44.9,30.03,East,87,0.0,1.0,91,0.00,,---,0.00,VWS V14.01,2013-10-06 00:50:00,
2013-10-05 20:55:00,47.2,44.7,30.02,East,87,0.0,1.0,91,0.00,,---,0.00,VWS V14.01,2013-10-06 00:55:00,
2013-10-05 21:00:00,47.0,44.5,30.03,East,87,0.0,1.0,91,0.00,,---,0.00,VWS V14.01,2013-10-06 01:00:00,
2013-10-05 21:05:00,46.7,44.2,30.03,East,87,0.0,1.0,91,0.00,,---,0.00,VWS V14.01,2013-10-06 01:05:00,
2013-10-05 21:10:00,46.4,43.9,30.03,East,87,0.0,2.0,91,0.00,,---,0.00,VWS V14.01,2013-10-06 01:10:00,
2013-10-05 21:15:00,46.3,43.8,30.03,East,87,0.0,2.0,91,0.00,,---,0.00,VWS V14.01,2013-10-06 01:15:00,
2013-10-05 21:20:00,46.3,44.1,30.03,East,87,0.0,2.0,92,0.00,,---,0.00,VWS V14.01,2013-10-06 01:20:00,
2013-10-05 21:25:00,46.2,44.0,30.04,East,87,0.0,2.0,92,0.00,,---,0.00,VWS V14.01,2013-10-06 01:25:00,
2013-10-05 21:30:00,46.1,43.9,30.04,East,87,0.0,2.0,92,0.00,,---,0.00,VWS V14.01,2013-10-06 01:30:00,
2013-10-05 21:35:00,45.9,43.7,30.04,East,87,0.0,0.0,92,0.00,,---,0.00,VWS V14.01,2013-10-06 01:35:00,
2013-10-05 21:40:00,45.7,43.5,30.05,East,87,0.0,1.0,92,0.00,,---,0.00,VWS V14.01,2013-10-06 01:40:00,
2013-10-05 21:45:00,45.6,43.4,30.04,East,87,0.0,1.0,92,0.00,,---,0.00,VWS V14.01,2013-10-06 01:45:00,
2013-10-05 21:50:00,45.5,43.3,30.04,East,87,0.0,1.0,92,0.00,,---,0.00,VWS V14.01,2013-10-06 01:50:00,
2013-10-05 21:55:00,45.4,43.5,30.05,East,87,0.0,1.0,93,0.00,,---,0.00,VWS V14.01,2013-10-06 01:55:00,
2013-10-05 22:00:00,45.2,43.3,30.05,East,87,0.0,1.0,93,0.00,,---,0.00,VWS V14.01,2013-10-06 02:00:00,
2013-10-05 22:05:00,45.2,43.3,30.05,East,87,1.0,2.0,93,0.00,,---,0.00,VWS V14.01,2013-10-06 02:05:00,
2013-10-05 22:10:00,45.4,43.8,30.05,East,87,0.0,2.0,94,0.00,,---,0.00,VWS V14.01,2013-10-06 02:10:00,
2013-10-05 22:15:00,45.3,43.4,30.05,East,87,0.0,2.0,93,0.00,,---,0.00,VWS V14.01,2013-10-06 02:15:00,
2013-10-05 22:20:00,45.1,43.2,30.05,East,87,0.0,2.0,93,0.00,,---,0.00,VWS V14.01,2013-10-06 02:20:00,
2013-10-05 22:25:00,45.1,43.2,30.05,East,87,0.0,2.0,93,0.00,,---,0.00,VWS V14.01,2013-10-06 02:25:00,
2013-10-05 22:30:00,45.2,43.6,30.05,East,87,0.0,3.0,94,0.00,,---,0.00,VWS V14.01,2013-10-06 02:30:00,
2013-10-05 22:35:00,45.5,43.9,30.05,West,261,0.0,2.0,94,0.00,,---,0.00,VWS V14.01,2013-10-06 02:35:00,
2013-10-05 22:40:00,45.9,44.3,30.05,West,261,0.0,2.0,94,0.00,,---,0.00,VWS V14.01,2013-10-06 02:40:00,
2013-10-05 22:45:00,46.0,44.4,30.05,West,261,0.0,2.0,94,0.00,,---,0.00,VWS V14.01,2013-10-06 02:45:00,
2013-10-05 22:50:00,46.1,44.5,30.06,West,261,1.0,3.0,94,0.00,,---,0.00,VWS V14.01,2013-10-06 02:50:00,
2013-10-05 22:55:00,46.0,44.4,30.06,WSW,247,1.0,3.0,94,0.00,,---,0.00,VWS V14.01,2013-10-06 02:55:00,
2013-10-05 23:00:00,46.0,44.4,30.06,WSW,247,0.0,3.0,94,0.00,,---,0.00,VWS V14.01,2013-10-06 03:00:00,
2013-10-05 23:05:00,46.0,44.1,30.06,WSW,247,1.0,1.0,93,0.00,,---,0.00,VWS V14.01,2013-10-06 03:05:00,
2013-10-05 23:10:00,45.9,44.3,30.06,WSW,247,1.0,2.0,94,0.00,,---,0.00,VWS V14.01,2013-10-06 03:10:00,
2013-10-05 23:15:00,45.9,44.0,30.06,WSW,247,0.0,2.0,93,0.00,,---,0.00,VWS V14.01,2013-10-06 03:15:00,
2013-10-05 23:20:00,45.9,44.3,30.06,WSW,247,0.0,2.0,94,0.00,,---,0.00,VWS V14.01,2013-10-06 03:20:00,
2013-10-05 23:25:00,45.9,44.3,30.06,WSW,247,0.0,2.0,94,0.00,,---,0.00,VWS V14.01,2013-10-06 03:25:00,
2013-10-05 23:30:00,46.0,44.4,30.06,WSW,247,1.0,2.0,94,0.00,,---,0.00,VWS V14.01,2013-10-06 03:30:00,
2013-10-05 23:35:00,46.2,44.6,30.06,WSW,247,1.0,2.0,94,0.00,,---,0.00,VWS V14.01,2013-10-06 03:35:00,
2013-10-05 23:40:00,46.4,44.8,30.07,WSW,247,0.0,2.0,94,0.00,,---,0.00,VWS V14.01,2013-10-06 03:40:00,
2013-10-05 23:45:00,46.6,45.0,30.07,WSW,247,0.0,2.0,94,0.00,,---,0.00,VWS V14.01,2013-10-06 03:45:00,
2013-10-05 23:50:00,46.6,44.7,30.06,WSW,247,0.0,2.0,93,0.00,,---,0.00,VWS V14.01,2013-10-06 03:50:00,
2013-10-05 23:55:00,46.6,44.7,30.07,WSW,246,3.0,3.0,93,0.00,,---,0.00,VWS V14.01,2013-10-06 03:55:00,